sensor_id;sensor_type;location;lat;lon;timestamp;pressure;altitude;pressure_sealevel;temperature;humidity
61026;BME280;46911;32.650;-16.902;2023-09-12T00:00:22;101615.53;;;22.12;67.24
61026;BME280;46911;32.650;-16.902;2023-09-12T00:02:28;101594.69;;;21.95;67.42
61026;BME280;46911;32.650;-16.902;2023-09-12T00:04:29;101618.97;;;22.14;67.42
61026;BME280;46911;32.650;-16.902;2023-09-12T00:06:30;101616.88;;;22.08;67.71
61026;BME280;46911;32.650;-16.902;2023-09-12T00:08:35;101610.50;;;21.99;67.78
61026;BME280;46911;32.650;-16.902;2023-09-12T00:10:36;101615.25;;;21.97;68.03
61026;BME280;46911;32.650;-16.902;2023-09-12T00:12:42;101610.16;;;21.94;68.75
61026;BME280;46911;32.650;-16.902;2023-09-12T00:14:43;101621.38;;;21.99;68.37
61026;BME280;46911;32.650;-16.902;2023-09-12T00:16:50;101620.69;;;21.97;68.80
61026;BME280;46911;32.650;-16.902;2023-09-12T00:18:53;101619.38;;;22.01;68.56
61026;BME280;46911;32.650;-16.902;2023-09-12T00:20:54;101614.56;;;21.95;68.78
61026;BME280;46911;32.650;-16.902;2023-09-12T00:22:55;101608.59;;;21.92;68.91
61026;BME280;46911;32.650;-16.902;2023-09-12T00:24:56;101599.59;;;21.91;68.95
61026;BME280;46911;32.650;-16.902;2023-09-12T00:26:59;101593.94;;;21.84;68.88
61026;BME280;46911;32.650;-16.902;2023-09-12T00:29:03;101606.19;;;21.88;68.88
61026;BME280;46911;32.650;-16.902;2023-09-12T00:31:06;101598.69;;;21.82;68.96
61026;BME280;46911;32.650;-16.902;2023-09-12T00:33:07;101603.78;;;21.85;68.78
61026;BME280;46911;32.650;-16.902;2023-09-12T00:35:10;101595.75;;;21.76;68.81
61026;BME280;46911;32.650;-16.902;2023-09-12T00:37:11;101599.13;;;21.78;68.65
61026;BME280;46911;32.650;-16.902;2023-09-12T00:39:12;101590.31;;;21.76;68.60
61026;BME280;46911;32.650;-16.902;2023-09-12T00:41:15;101602.72;;;21.78;68.29
61026;BME280;46911;32.650;-16.902;2023-09-12T00:43:18;101600.69;;;21.80;68.11
61026;BME280;46911;32.650;-16.902;2023-09-12T00:45:23;101595.91;;;21.74;68.14
61026;BME280;46911;32.650;-16.902;2023-09-12T00:47:27;101604.56;;;21.78;67.85
61026;BME280;46911;32.650;-16.902;2023-09-12T00:49:29;101595.75;;;21.76;67.77
61026;BME280;46911;32.650;-16.902;2023-09-12T00:51:35;101595.03;;;21.73;67.46
61026;BME280;46911;32.650;-16.902;2023-09-12T00:53:41;101596.19;;;21.71;67.51
61026;BME280;46911;32.650;-16.902;2023-09-12T00:55:46;101590.47;;;21.74;67.39
61026;BME280;46911;32.650;-16.902;2023-09-12T00:57:53;101590.31;;;21.76;67.35
61026;BME280;46911;32.650;-16.902;2023-09-12T00:59:54;101603.56;;;21.79;67.42
61026;BME280;46911;32.650;-16.902;2023-09-12T01:01:59;101589.91;;;21.70;67.09
61026;BME280;46911;32.650;-16.902;2023-09-12T01:04:01;101586.72;;;21.75;67.65
61026;BME280;46911;32.650;-16.902;2023-09-12T01:06:06;101588.91;;;21.71;67.46
61026;BME280;46911;32.650;-16.902;2023-09-12T01:08:11;101589.75;;;21.72;67.31
61026;BME280;46911;32.650;-16.902;2023-09-12T01:10:15;101574.09;;;21.66;67.31
61026;BME280;46911;32.650;-16.902;2023-09-12T01:12:16;101584.81;;;21.67;67.26
61026;BME280;46911;32.650;-16.902;2023-09-12T01:14:20;101586.50;;;21.68;67.34
61026;BME280;46911;32.650;-16.902;2023-09-12T01:16:21;101585.66;;;21.68;67.13
61026;BME280;46911;32.650;-16.902;2023-09-12T01:18:27;101581.06;;;21.68;66.91
61026;BME280;46911;32.650;-16.902;2023-09-12T01:20:33;101574.88;;;21.58;67.01
61026;BME280;46911;32.650;-16.902;2023-09-12T01:26:21;101588.81;;;21.63;67.12
61026;BME280;46911;32.650;-16.902;2023-09-12T01:27:54;101589.78;;;21.54;67.09
61026;BME280;46911;32.650;-16.902;2023-09-12T01:30:04;101592.00;;;21.59;66.81
61026;BME280;46911;32.650;-16.902;2023-09-12T01:32:06;101590.84;;;21.61;66.64
61026;BME280;46911;32.650;-16.902;2023-09-12T01:34:10;101580.59;;;21.55;66.33
61026;BME280;46911;32.650;-16.902;2023-09-12T01:36:14;101591.69;;;21.62;65.89
61026;BME280;46911;32.650;-16.902;2023-09-12T01:38:21;101573.50;;;21.54;66.29
61026;BME280;46911;32.650;-16.902;2023-09-12T01:40:31;101581.16;;;21.59;66.42
61026;BME280;46911;32.650;-16.902;2023-09-12T01:42:42;101580.44;;;21.56;66.42
61026;BME280;46911;32.650;-16.902;2023-09-12T01:44:50;101568.06;;;21.54;66.70
61026;BME280;46911;32.650;-16.902;2023-09-12T01:46:52;101573.34;;;21.55;66.49
61026;BME280;46911;32.650;-16.902;2023-09-12T01:48:56;101563.75;;;21.51;66.75
61026;BME280;46911;32.650;-16.902;2023-09-12T01:51:02;101560.03;;;21.52;66.81
61026;BME280;46911;32.650;-16.902;2023-09-12T01:53:04;101561.50;;;21.47;66.97
61026;BME280;46911;32.650;-16.902;2023-09-12T01:55:09;101554.69;;;21.43;67.18
61026;BME280;46911;32.650;-16.902;2023-09-12T01:57:11;101564.06;;;21.48;67.19
61026;BME280;46911;32.650;-16.902;2023-09-12T01:59:14;101562.91;;;21.51;67.48
61026;BME280;46911;32.650;-16.902;2023-09-12T02:01:18;101558.63;;;21.48;67.50
61026;BME280;46911;32.650;-16.902;2023-09-12T02:03:19;101555.22;;;21.46;67.70
61026;BME280;46911;32.650;-16.902;2023-09-12T02:05:21;101542.28;;;21.40;67.78
61026;BME280;46911;32.650;-16.902;2023-09-12T02:07:32;101557.78;;;21.48;67.71
61026;BME280;46911;32.650;-16.902;2023-09-12T02:09:35;101534.97;;;21.40;67.93
61026;BME280;46911;32.650;-16.902;2023-09-12T02:11:36;101546.22;;;21.46;67.87
61026;BME280;46911;32.650;-16.902;2023-09-12T02:13:37;101545.53;;;21.44;67.82
61026;BME280;46911;32.650;-16.902;2023-09-12T02:15:37;101528.16;;;21.36;68.28
61026;BME280;46911;32.650;-16.902;2023-09-12T02:17:39;101529.88;;;21.37;68.36
61026;BME280;46911;32.650;-16.902;2023-09-12T02:19:42;101536.16;;;21.38;68.09
61026;BME280;46911;32.650;-16.902;2023-09-12T02:21:45;101531.03;;;21.35;68.15
61026;BME280;46911;32.650;-16.902;2023-09-12T02:23:48;101528.16;;;21.36;68.16
61026;BME280;46911;32.650;-16.902;2023-09-12T02:25:52;101530.19;;;21.34;68.20
61026;BME280;46911;32.650;-16.902;2023-09-12T02:27:53;101524.75;;;21.34;68.06
61026;BME280;46911;32.650;-16.902;2023-09-12T02:29:57;101534.28;;;21.38;68.19
61026;BME280;46911;32.650;-16.902;2023-09-12T02:31:58;101530.19;;;21.34;68.16
61026;BME280;46911;32.650;-16.902;2023-09-12T02:34:02;101528.03;;;21.38;68.28
61026;BME280;46911;32.650;-16.902;2023-09-12T02:36:03;101530.88;;;21.36;68.17
61026;BME280;46911;32.650;-16.902;2023-09-12T02:38:04;101517.06;;;21.30;68.30
61026;BME280;46911;32.650;-16.902;2023-09-12T02:40:09;101510.09;;;21.27;68.08
61026;BME280;46911;32.650;-16.902;2023-09-12T02:42:18;101523.44;;;21.38;68.02
61026;BME280;46911;32.650;-16.902;2023-09-12T02:44:18;101513.66;;;21.28;68.22
61026;BME280;46911;32.650;-16.902;2023-09-12T02:46:22;101520.50;;;21.32;68.02
61026;BME280;46911;32.650;-16.902;2023-09-12T02:48:25;101524.38;;;21.29;68.30
61026;BME280;46911;32.650;-16.902;2023-09-12T02:50:29;101516.69;;;21.24;68.36
61026;BME280;46911;32.650;-16.902;2023-09-12T02:52:32;101523.59;;;21.37;68.24
61026;BME280;46911;32.650;-16.902;2023-09-12T02:54:34;101523.66;;;21.27;68.10
61026;BME280;46911;32.650;-16.902;2023-09-12T02:56:37;101523.66;;;21.27;68.04
61026;BME280;46911;32.650;-16.902;2023-09-12T02:58:38;101525.06;;;21.31;67.63
61026;BME280;46911;32.650;-16.902;2023-09-12T03:00:41;101519.53;;;21.23;67.71
61026;BME280;46911;32.650;-16.902;2023-09-12T03:02:45;101520.25;;;21.25;67.46
61026;BME280;46911;32.650;-16.902;2023-09-12T03:04:48;101527.06;;;21.29;67.39
61026;BME280;46911;32.650;-16.902;2023-09-12T03:06:54;101533.50;;;21.28;67.13
61026;BME280;46911;32.650;-16.902;2023-09-12T03:08:59;101516.00;;;21.22;67.25
61026;BME280;46911;32.650;-16.902;2023-09-12T03:11:03;101515.16;;;21.22;67.28
61026;BME280;46911;32.650;-16.902;2023-09-12T03:13:07;101528.94;;;21.29;67.08
61026;BME280;46911;32.650;-16.902;2023-09-12T03:15:11;101526.75;;;21.32;67.12
61026;BME280;46911;32.650;-16.902;2023-09-12T03:17:12;101516.00;;;21.22;67.01
61026;BME280;46911;32.650;-16.902;2023-09-12T03:19:13;101511.56;;;21.21;66.80
61026;BME280;46911;32.650;-16.902;2023-09-12T03:21:14;101524.53;;;21.28;67.21
61026;BME280;46911;32.650;-16.902;2023-09-12T03:23:18;101515.28;;;21.20;66.78
61026;BME280;46911;32.650;-16.902;2023-09-12T03:25:19;101529.09;;;21.27;66.96
61026;BME280;46911;32.650;-16.902;2023-09-12T03:27:20;101527.41;;;21.26;66.54
61026;BME280;46911;32.650;-16.902;2023-09-12T03:29:21;101523.97;;;21.24;66.77
61026;BME280;46911;32.650;-16.902;2023-09-12T03:31:22;101513.75;;;21.18;66.95
61026;BME280;46911;32.650;-16.902;2023-09-12T03:33:23;101526.28;;;21.19;67.32
61026;BME280;46911;32.650;-16.902;2023-09-12T03:35:25;101522.56;;;21.20;67.10
61026;BME280;46911;32.650;-16.902;2023-09-12T03:37:32;101522.56;;;21.20;67.36
61026;BME280;46911;32.650;-16.902;2023-09-12T03:39:36;101520.88;;;21.19;67.01
61026;BME280;46911;32.650;-16.902;2023-09-12T03:41:39;101519.78;;;21.12;67.12
61026;BME280;46911;32.650;-16.902;2023-09-12T03:43:40;101518.63;;;21.14;66.75
61026;BME280;46911;32.650;-16.902;2023-09-12T03:45:41;101525.13;;;21.21;66.86
61026;BME280;46911;32.650;-16.902;2023-09-12T03:47:45;101519.47;;;21.15;66.61
61026;BME280;46911;32.650;-16.902;2023-09-12T03:49:50;101533.75;;;21.17;66.88
61026;BME280;46911;32.650;-16.902;2023-09-12T03:51:56;101524.63;;;21.18;67.00
61026;BME280;46911;32.650;-16.902;2023-09-12T03:53:57;101533.59;;;21.18;67.02
61026;BME280;46911;32.650;-16.902;2023-09-12T03:55:58;101532.50;;;21.11;66.95
61026;BME280;46911;32.650;-16.902;2023-09-12T03:58:00;101536.63;;;21.15;66.99
61026;BME280;46911;32.650;-16.902;2023-09-12T04:00:01;101536.75;;;21.14;66.87
61026;BME280;46911;32.650;-16.902;2023-09-12T04:02:14;101532.50;;;21.11;66.92
61026;BME280;46911;32.650;-16.902;2023-09-12T04:04:17;101517.69;;;21.05;66.82
61026;BME280;46911;32.650;-16.902;2023-09-12T04:06:18;101530.09;;;21.08;66.65
61026;BME280;46911;32.650;-16.902;2023-09-12T04:08:21;101528.94;;;21.11;66.83
61026;BME280;46911;32.650;-16.902;2023-09-12T04:10:24;101530.63;;;21.12;66.58
61026;BME280;46911;32.650;-16.902;2023-09-12T04:12:25;101522.34;;;21.13;66.88
61026;BME280;46911;32.650;-16.902;2023-09-12T04:14:26;101516.59;;;21.16;66.75
61026;BME280;46911;32.650;-16.902;2023-09-12T04:16:30;101522.56;;;21.20;66.53
61026;BME280;46911;32.650;-16.902;2023-09-12T04:18:31;101522.25;;;21.23;66.22
61026;BME280;46911;32.650;-16.902;2023-09-12T04:20:31;101507.69;;;21.24;66.20
61026;BME280;46911;32.650;-16.902;2023-09-12T04:22:35;101512.28;;;21.23;65.92
61026;BME280;46911;32.650;-16.902;2023-09-12T04:24:36;101518.63;;;21.32;65.72
61026;BME280;46911;32.650;-16.902;2023-09-12T04:26:39;101522.03;;;21.34;65.59
61026;BME280;46911;32.650;-16.902;2023-09-12T04:28:47;101520.16;;;21.35;65.20
61026;BME280;46911;32.650;-16.902;2023-09-12T04:30:48;101521.03;;;21.35;65.16
61026;BME280;46911;32.650;-16.902;2023-09-12T04:32:54;101520.72;;;21.38;65.41
61026;BME280;46911;32.650;-16.902;2023-09-12T04:34:55;101514.44;;;21.38;65.09
61026;BME280;46911;32.650;-16.902;2023-09-12T04:37:01;101518.69;;;21.40;64.99
61026;BME280;46911;32.650;-16.902;2023-09-12T04:39:03;101518.69;;;21.40;65.37
61026;BME280;46911;32.650;-16.902;2023-09-12T04:41:12;101519.41;;;21.43;65.48
61026;BME280;46911;32.650;-16.902;2023-09-12T04:43:15;101511.56;;;21.39;65.25
61026;BME280;46911;32.650;-16.902;2023-09-12T04:45:16;101513.66;;;21.46;65.09
61026;BME280;46911;32.650;-16.902;2023-09-12T04:47:17;101524.38;;;21.47;65.02
61026;BME280;46911;32.650;-16.902;2023-09-12T04:49:24;101517.63;;;21.51;65.13
61026;BME280;46911;32.650;-16.902;2023-09-12T04:51:27;101517.75;;;21.50;65.21
61026;BME280;46911;32.650;-16.902;2023-09-12T04:53:31;101530.91;;;21.54;65.30
61026;BME280;46911;32.650;-16.902;2023-09-12T04:55:39;101520.03;;;21.54;65.49
61026;BME280;46911;32.650;-16.902;2023-09-12T04:57:43;101505.22;;;21.49;65.26
61026;BME280;46911;32.650;-16.902;2023-09-12T04:59:48;101513.78;;;21.54;65.18
61026;BME280;46911;32.650;-16.902;2023-09-12T05:01:51;101519.03;;;21.55;65.31
61026;BME280;46911;32.650;-16.902;2023-09-12T05:03:57;101512.56;;;21.56;65.25
61026;BME280;46911;32.650;-16.902;2023-09-12T05:06:03;101510.63;;;21.49;65.24
61026;BME280;46911;32.650;-16.902;2023-09-12T05:08:04;101514.34;;;21.48;65.33
61026;BME280;46911;32.650;-16.902;2023-09-12T05:10:06;101523.75;;;21.53;65.51
61026;BME280;46911;32.650;-16.902;2023-09-12T05:12:09;101515.19;;;21.48;65.82
61026;BME280;46911;32.650;-16.902;2023-09-12T05:14:10;101528.31;;;21.53;65.96
61026;BME280;46911;32.650;-16.902;2023-09-12T05:16:11;101523.88;;;21.52;65.79
61026;BME280;46911;32.650;-16.902;2023-09-12T05:18:15;101538.19;;;21.54;66.12
61026;BME280;46911;32.650;-16.902;2023-09-12T05:20:16;101519.94;;;21.46;66.00
61026;BME280;46911;32.650;-16.902;2023-09-12T05:22:22;101535.59;;;21.52;66.17
61026;BME280;46911;32.650;-16.902;2023-09-12T05:24:25;101530.41;;;21.59;65.97
61026;BME280;46911;32.650;-16.902;2023-09-12T05:26:26;101535.16;;;21.57;66.19
61026;BME280;46911;32.650;-16.902;2023-09-12T05:28:27;101534.16;;;21.58;66.37
61026;BME280;46911;32.650;-16.902;2023-09-12T05:30:28;101516.91;;;21.49;66.35
61026;BME280;46911;32.650;-16.902;2023-09-12T05:32:33;101526.47;;;21.53;66.30
61026;BME280;46911;32.650;-16.902;2023-09-12T05:34:36;101517.47;;;21.53;66.20
61026;BME280;46911;32.650;-16.902;2023-09-12T05:36:37;101512.25;;;21.41;66.23
61026;BME280;46911;32.650;-16.902;2023-09-12T05:38:38;101526.16;;;21.56;66.57
61026;BME280;46911;32.650;-16.902;2023-09-12T05:40:39;101533.28;;;21.57;66.59
61026;BME280;46911;32.650;-16.902;2023-09-12T05:42:45;101538.88;;;21.56;66.49
61026;BME280;46911;32.650;-16.902;2023-09-12T05:44:48;101538.88;;;21.56;66.47
61026;BME280;46911;32.650;-16.902;2023-09-12T05:46:55;101538.31;;;21.52;66.72
61026;BME280;46911;32.650;-16.902;2023-09-12T05:48:58;101538.31;;;21.52;67.11
61026;BME280;46911;32.650;-16.902;2023-09-12T05:50:59;101541.19;;;21.51;67.36
61026;BME280;46911;32.650;-16.902;2023-09-12T05:53:02;101539.09;;;21.45;67.03
61026;BME280;46911;32.650;-16.902;2023-09-12T05:55:06;101538.41;;;21.43;67.33
61026;BME280;46911;32.650;-16.902;2023-09-12T05:57:09;101541.44;;;21.39;67.55
61026;BME280;46911;32.650;-16.902;2023-09-12T05:59:10;101544.81;;;21.41;67.63
61026;BME280;46911;32.650;-16.902;2023-09-12T06:01:11;101521.56;;;21.21;67.92
61026;BME280;46911;32.650;-16.902;2023-09-12T06:03:15;101546.16;;;21.37;68.03
61026;BME280;46911;32.650;-16.902;2023-09-12T06:05:19;101558.09;;;21.45;67.89
61026;BME280;46911;32.650;-16.902;2023-09-12T06:07:22;101560.66;;;21.46;68.02
61026;BME280;46911;32.650;-16.902;2023-09-12T06:09:23;101547.53;;;21.41;67.77
61026;BME280;46911;32.650;-16.902;2023-09-12T06:11:27;101559.50;;;21.49;67.98
61026;BME280;46911;32.650;-16.902;2023-09-12T06:13:31;101562.22;;;21.49;67.66
61026;BME280;46911;32.650;-16.902;2023-09-12T06:15:33;101556.41;;;21.44;67.90
61026;BME280;46911;32.650;-16.902;2023-09-12T06:17:34;101558.56;;;21.40;67.92
61026;BME280;46911;32.650;-16.902;2023-09-12T06:19:37;101556.16;;;21.37;67.90
61026;BME280;46911;32.650;-16.902;2023-09-12T06:21:43;101562.97;;;21.41;67.57
61026;BME280;46911;32.650;-16.902;2023-09-12T06:23:44;101565.53;;;21.43;67.16
61026;BME280;46911;32.650;-16.902;2023-09-12T06:25:48;101563.22;;;21.48;66.86
61026;BME280;46911;32.650;-16.902;2023-09-12T06:27:51;101566.94;;;21.47;66.66
61026;BME280;46911;32.650;-16.902;2023-09-12T06:29:55;101552.13;;;21.41;66.61
61026;BME280;46911;32.650;-16.902;2023-09-12T06:32:01;101563.16;;;21.39;67.02
61026;BME280;46911;32.650;-16.902;2023-09-12T06:34:02;101558.81;;;21.29;67.32
61026;BME280;46911;32.650;-16.902;2023-09-12T06:36:06;101573.94;;;21.31;67.01
61026;BME280;46911;32.650;-16.902;2023-09-12T06:38:09;101572.13;;;21.22;67.32
61026;BME280;46911;32.650;-16.902;2023-09-12T06:40:11;101565.84;;;21.21;67.49
61026;BME280;46911;32.650;-16.902;2023-09-12T06:42:15;101569.69;;;21.19;67.30
61026;BME280;46911;32.650;-16.902;2023-09-12T06:44:19;101572.72;;;21.16;66.97
61026;BME280;46911;32.650;-16.902;2023-09-12T06:46:19;101563.34;;;21.10;67.21
61026;BME280;46911;32.650;-16.902;2023-09-12T06:48:24;101577.16;;;21.17;67.24
61026;BME280;46911;32.650;-16.902;2023-09-12T06:50:25;101572.00;;;21.14;66.93
61026;BME280;46911;32.650;-16.902;2023-09-12T06:52:26;101566.66;;;21.04;67.11
61026;BME280;46911;32.650;-16.902;2023-09-12T06:54:27;101561.09;;;21.05;67.01
61026;BME280;46911;32.650;-16.902;2023-09-12T06:56:28;101575.91;;;21.11;67.16
61026;BME280;46911;32.650;-16.902;2023-09-12T06:58:31;101575.75;;;21.13;66.82
61026;BME280;46911;32.650;-16.902;2023-09-12T07:00:35;101576.91;;;21.10;67.06
61026;BME280;46911;32.650;-16.902;2023-09-12T07:02:36;101582.88;;;21.14;66.50
61026;BME280;46911;32.650;-16.902;2023-09-12T07:04:39;101574.88;;;21.12;66.92
61026;BME280;46911;32.650;-16.902;2023-09-12T07:06:40;101575.75;;;21.13;66.87
61026;BME280;46911;32.650;-16.902;2023-09-12T07:08:43;101569.19;;;21.15;66.76
61026;BME280;46911;32.650;-16.902;2023-09-12T07:10:45;101576.84;;;21.20;66.97
61026;BME280;46911;32.650;-16.902;2023-09-12T07:12:46;101563.50;;;21.09;66.71
61026;BME280;46911;32.650;-16.902;2023-09-12T07:14:49;101574.28;;;21.18;66.90
61026;BME280;46911;32.650;-16.902;2023-09-12T07:16:51;101564.44;;;21.17;66.81
61026;BME280;46911;32.650;-16.902;2023-09-12T07:18:57;101572.81;;;21.24;66.44
61026;BME280;46911;32.650;-16.902;2023-09-12T07:21:03;101570.25;;;21.22;66.73
61026;BME280;46911;32.650;-16.902;2023-09-12T07:23:07;101580.19;;;21.32;66.23
61026;BME280;46911;32.650;-16.902;2023-09-12T07:25:08;101589.72;;;21.36;66.36
61026;BME280;46911;32.650;-16.902;2023-09-12T07:27:11;101590.28;;;21.39;66.33
61026;BME280;46911;32.650;-16.902;2023-09-12T07:29:12;101593.38;;;21.45;66.17
61026;BME280;46911;32.650;-16.902;2023-09-12T07:31:16;101582.91;;;21.50;65.96
61026;BME280;46911;32.650;-16.902;2023-09-12T07:33:20;101593.88;;;21.58;65.50
61026;BME280;46911;32.650;-16.902;2023-09-12T07:35:24;101586.25;;;21.62;65.48
61026;BME280;46911;32.650;-16.902;2023-09-12T07:37:25;101579.66;;;21.64;65.15
61026;BME280;46911;32.650;-16.902;2023-09-12T07:39:29;101588.44;;;21.76;65.05
61026;BME280;46911;32.650;-16.902;2023-09-12T07:41:32;101590.69;;;21.81;65.01
61026;BME280;46911;32.650;-16.902;2023-09-12T07:43:36;101593.25;;;21.82;65.05
61026;BME280;46911;32.650;-16.902;2023-09-12T07:45:37;101581.69;;;21.80;64.82
61026;BME280;46911;32.650;-16.902;2023-09-12T07:47:41;101581.22;;;21.85;64.53
61026;BME280;46911;32.650;-16.902;2023-09-12T07:49:42;101595.03;;;21.92;64.81
61026;BME280;46911;32.650;-16.902;2023-09-12T07:51:45;101603.56;;;21.97;64.82
61026;BME280;46911;32.650;-16.902;2023-09-12T07:53:50;101601.91;;;22.04;64.43
61026;BME280;46911;32.650;-16.902;2023-09-12T07:55:53;101603.13;;;22.10;64.55
61026;BME280;46911;32.650;-16.902;2023-09-12T07:57:55;101594.44;;;22.06;64.50
61026;BME280;46911;32.650;-16.902;2023-09-12T07:59:57;101602.13;;;22.11;64.72
61026;BME280;46911;32.650;-16.902;2023-09-12T08:02:00;101607.59;;;22.19;64.51
61026;BME280;46911;32.650;-16.902;2023-09-12T08:04:03;101600.00;;;22.22;64.27
61026;BME280;46911;32.650;-16.902;2023-09-12T08:06:07;101606.31;;;22.31;64.21
61026;BME280;46911;32.650;-16.902;2023-09-12T08:08:10;101600.75;;;22.33;64.10
61026;BME280;46911;32.650;-16.902;2023-09-12T08:10:11;101596.22;;;22.42;64.10
61026;BME280;46911;32.650;-16.902;2023-09-12T08:12:12;101609.41;;;22.54;63.87
61026;BME280;46911;32.650;-16.902;2023-09-12T08:14:13;101599.72;;;22.60;63.96
61026;BME280;46911;32.650;-16.902;2023-09-12T08:16:14;101582.88;;;22.56;63.76
61026;BME280;46911;32.650;-16.902;2023-09-12T08:18:17;101599.28;;;22.73;63.81
61026;BME280;46911;32.650;-16.902;2023-09-12T08:20:23;101592.81;;;22.74;63.74
61026;BME280;46911;32.650;-16.902;2023-09-12T08:22:29;101591.53;;;22.86;63.78
61026;BME280;46911;32.650;-16.902;2023-09-12T08:24:30;101595.63;;;22.90;63.64
61026;BME280;46911;32.650;-16.902;2023-09-12T08:26:38;101600.25;;;22.98;63.56
61026;BME280;46911;32.650;-16.902;2023-09-12T08:28:43;101594.47;;;23.01;63.79
61026;BME280;46911;32.650;-16.902;2023-09-12T08:30:45;101592.28;;;23.05;63.94
61026;BME280;46911;32.650;-16.902;2023-09-12T08:32:46;101603.41;;;23.20;63.78
61026;BME280;46911;32.650;-16.902;2023-09-12T08:34:47;101617.56;;;23.32;63.81
61026;BME280;46911;32.650;-16.902;2023-09-12T08:36:48;101606.31;;;23.35;63.57
61026;BME280;46911;32.650;-16.902;2023-09-12T08:38:49;101607.69;;;23.47;63.07
61026;BME280;46911;32.650;-16.902;2023-09-12T08:40:51;101617.75;;;23.55;63.21
61026;BME280;46911;32.650;-16.902;2023-09-12T08:42:52;101611.78;;;23.51;62.97
61026;BME280;46911;32.650;-16.902;2023-09-12T08:44:58;101609.41;;;23.56;62.92
61026;BME280;46911;32.650;-16.902;2023-09-12T08:47:02;101617.44;;;23.74;62.85
61026;BME280;46911;32.650;-16.902;2023-09-12T08:49:06;101623.25;;;23.88;62.34
61026;BME280;46911;32.650;-16.902;2023-09-12T08:51:08;101617.97;;;24.03;62.22
61026;BME280;46911;32.650;-16.902;2023-09-12T08:53:13;101617.63;;;24.14;62.19
61026;BME280;46911;32.650;-16.902;2023-09-12T08:55:17;101608.75;;;24.20;62.01
61026;BME280;46911;32.650;-16.902;2023-09-12T08:57:20;101622.03;;;24.40;61.37
61026;BME280;46911;32.650;-16.902;2023-09-12T08:59:22;101618.91;;;24.51;61.17
61026;BME280;46911;32.650;-16.902;2023-09-12T09:01:23;101607.50;;;24.56;61.37
61026;BME280;46911;32.650;-16.902;2023-09-12T09:03:28;101625.19;;;24.77;61.42
61026;BME280;46911;32.650;-16.902;2023-09-12T09:05:31;101628.47;;;25.03;61.13
61026;BME280;46911;32.650;-16.902;2023-09-12T09:07:43;101634.28;;;25.40;61.36
61026;BME280;46911;32.650;-16.902;2023-09-12T09:09:46;101636.00;;;25.87;60.54
61026;BME280;46911;32.650;-16.902;2023-09-12T09:11:51;101637.09;;;26.69;58.78
61026;BME280;46911;32.650;-16.902;2023-09-12T09:13:52;101621.81;;;27.05;56.94
61026;BME280;46911;32.650;-16.902;2023-09-12T09:16:15;101629.59;;;27.38;54.99
61026;BME280;46911;32.650;-16.902;2023-09-12T09:18:18;101632.38;;;27.08;56.19
61026;BME280;46911;32.650;-16.902;2023-09-12T09:20:34;101642.78;;;27.34;56.23
61026;BME280;46911;32.650;-16.902;2023-09-12T09:22:35;101644.38;;;26.92;58.46
61026;BME280;46911;32.650;-16.902;2023-09-12T09:24:44;101637.63;;;28.04;55.58
61026;BME280;46911;32.650;-16.902;2023-09-12T09:26:51;101649.38;;;27.98;55.73
61026;BME280;46911;32.650;-16.902;2023-09-12T09:29:09;101648.72;;;28.46;53.63
61026;BME280;46911;32.650;-16.902;2023-09-12T09:31:13;101644.34;;;28.23;54.02
61026;BME280;46911;32.650;-16.902;2023-09-12T09:33:15;101651.69;;;28.80;52.79
61026;BME280;46911;32.650;-16.902;2023-09-12T09:35:19;101654.78;;;29.60;51.08
61026;BME280;46911;32.650;-16.902;2023-09-12T09:37:23;101656.03;;;29.58;51.74
61026;BME280;46911;32.650;-16.902;2023-09-12T09:39:25;101656.69;;;29.80;51.09
61026;BME280;46911;32.650;-16.902;2023-09-12T09:41:31;101663.94;;;30.08;50.56
61026;BME280;46911;32.650;-16.902;2023-09-12T09:43:33;101650.59;;;30.04;50.40
61026;BME280;46911;32.650;-16.902;2023-09-12T09:45:43;101654.59;;;30.29;49.75
61026;BME280;46911;32.650;-16.902;2023-09-12T09:47:45;101662.03;;;30.28;50.49
61026;BME280;46911;32.650;-16.902;2023-09-12T09:49:46;101668.59;;;30.00;50.75
61026;BME280;46911;32.650;-16.902;2023-09-12T09:51:47;101670.91;;;30.17;50.44
61026;BME280;46911;32.650;-16.902;2023-09-12T09:53:54;101670.69;;;30.25;50.40
61026;BME280;46911;32.650;-16.902;2023-09-12T09:56:16;101672.78;;;29.83;51.29
61026;BME280;46911;32.650;-16.902;2023-09-12T09:58:23;101671.50;;;29.65;51.33
61026;BME280;46911;32.650;-16.902;2023-09-12T10:00:25;101668.81;;;29.92;50.78
61026;BME280;46911;32.650;-16.902;2023-09-12T10:02:27;101674.72;;;30.22;50.55
61026;BME280;46911;32.650;-16.902;2023-09-12T10:04:28;101664.78;;;30.55;49.23
61026;BME280;46911;32.650;-16.902;2023-09-12T10:06:31;101675.75;;;30.75;49.14
61026;BME280;46911;32.650;-16.902;2023-09-12T10:08:34;101672.78;;;30.77;49.32
61026;BME280;46911;32.650;-16.902;2023-09-12T10:10:38;101665.97;;;31.38;47.73
61026;BME280;46911;32.650;-16.902;2023-09-12T10:12:45;101672.31;;;30.86;48.20
61026;BME280;46911;32.650;-16.902;2023-09-12T10:14:52;101680.34;;;30.88;48.35
61026;BME280;46911;32.650;-16.902;2023-09-12T10:16:57;101679.91;;;31.11;47.70
61026;BME280;46911;32.650;-16.902;2023-09-12T10:19:11;101686.75;;;30.82;49.00
61026;BME280;46911;32.650;-16.902;2023-09-12T10:21:21;101672.59;;;30.65;48.52
61026;BME280;46911;32.650;-16.902;2023-09-12T10:23:34;101693.28;;;31.46;47.81
61026;BME280;46911;32.650;-16.902;2023-09-12T10:25:43;101683.31;;;32.16;45.95
61026;BME280;46911;32.650;-16.902;2023-09-12T10:27:46;101687.63;;;32.55;44.89
61026;BME280;46911;32.650;-16.902;2023-09-12T10:29:50;101678.81;;;31.89;46.34
61026;BME280;46911;32.650;-16.902;2023-09-12T10:31:55;101679.34;;;32.05;46.07